Terminal Aerodrome Forecast
Issued by NWS

Home | Current Version | Previous Version | Text Only | Print | Product List | Glossary On
Versions: 1 2 3 4 5 6 7 8 9 10 11 12 13 14 15 16 17 18 19 20 21 22 23 24 25 26 27 28 29 30 31
464
FTUS43 KDVN 081301 AAA
TAFBRL
TAF AMD
KBRL 081301Z 0813/0912 31018G26KT 4SM -SN SCT015 OVC035
     FM081800 32018G28KT 5SM -SHSN BR OVC030
     FM090300 33017G24KT 3SM -SHSN BR OVC018=

USA.gov is the U.S. government's official web portal to all federal, state and local government web resources and services.